Terminal Aerodrome Forecast
Issued by NWS

Home | Current Version | Previous Version | Text Only | Print | Product List | Glossary On
Versions: 1 2 3 4 5 6 7 8 9 10 11 12 13 14 15 16
533
FTUS44 KLZK 300929 AAA
TAFHRO
TAF AMD
KHRO 300929Z 3010/3106 VRB03KT 5SM BR SCT250
      TEMPO 3010/3014 P6SM NSW
     FM301400 12006KT P6SM SCT250
     FM301800 12007KT P6SM VCTS SCT050CB SCT250=

USA.gov is the U.S. government's official web portal to all federal, state and local government web resources and services.